SBNT/NAT METAR and TAF weather

Enter ICAO airport designator
Station Type Date Time Source
SBNT METAR 2022/06/30 02:00 UTC NOAA

SBNT 300200Z 18006KT CAVOK 23/22 Q1015


Station Type Date Time Source
SBNT Decoded METAR 2022/06/30 02:00 UTC NOAA

Natal Aeroporto, Brazil (SBNT) 05-55S 035-15W 49M
Jun 29, 2022 - 10:00 PM EDT / 2022.06.30 0200 UTC
Wind: from the S (180 degrees) at 7 MPH (6 KT):0
Visibility: greater than 7 mile(s):0
Temperature: 73 F (23 C)
Dew Point: 71 F (22 C)
Relative Humidity: 94%
Pressure (altimeter): 29.97 in. Hg (1015 hPa)
ob: SBNT 300200Z 18006KT CAVOK 23/22 Q1015
cycle: 2

Station Type Date Time Source
SBNT TAF 2022/06/30 00:00 UTC NOAA

TAF SBNT 292100Z 3000/3012 19007KT 7000 BKN015 TN25/3009Z TX26/3012Z PROB40 3009/3012 3000 RA BR BKN010
RMK PGU

Example: see airport list